sensor_id;sensor_type;location;lat;lon;timestamp;P1;durP1;ratioP1;P2;durP2;ratioP2
26780;SDS011;14366;49.184;8.054;2023-05-23T00:04:57;43.60;;;30.80;;
26780;SDS011;14366;49.184;8.054;2023-05-23T00:10:28;48.10;;;31.10;;
26780;SDS011;14366;49.184;8.054;2023-05-23T00:16:00;44.70;;;31.50;;
26780;SDS011;14366;49.184;8.054;2023-05-23T00:21:20;43.30;;;31.53;;
26780;SDS011;14366;49.184;8.054;2023-05-23T00:26:51;42.75;;;32.10;;
26780;SDS011;14366;49.184;8.054;2023-05-23T00:32:08;44.80;;;31.50;;
26780;SDS011;14366;49.184;8.054;2023-05-23T00:37:45;43.77;;;31.37;;
26780;SDS011;14366;49.184;8.054;2023-05-23T00:43:13;42.47;;;30.27;;
26780;SDS011;14366;49.184;8.054;2023-05-23T00:48:45;39.30;;;28.65;;
26780;SDS011;14366;49.184;8.054;2023-05-23T00:54:21;37.57;;;28.73;;
26780;SDS011;14366;49.184;8.054;2023-05-23T00:59:56;35.30;;;27.30;;
26780;SDS011;14366;49.184;8.054;2023-05-23T01:10:37;36.03;;;27.60;;
26780;SDS011;14366;49.184;8.054;2023-05-23T01:16:12;38.27;;;27.37;;
26780;SDS011;14366;49.184;8.054;2023-05-23T01:27:00;36.33;;;26.13;;
26780;SDS011;14366;49.184;8.054;2023-05-23T01:32:37;35.17;;;27.07;;
26780;SDS011;14366;49.184;8.054;2023-05-23T01:38:11;33.27;;;26.13;;
26780;SDS011;14366;49.184;8.054;2023-05-23T01:43:28;35.40;;;26.55;;
26780;SDS011;14366;49.184;8.054;2023-05-23T01:49:02;34.20;;;25.80;;
26780;SDS011;14366;49.184;8.054;2023-05-23T01:54:36;33.00;;;27.00;;
26780;SDS011;14366;49.184;8.054;2023-05-23T02:06:13;37.37;;;28.53;;
26780;SDS011;14366;49.184;8.054;2023-05-23T02:16:54;36.43;;;30.13;;
26780;SDS011;14366;49.184;8.054;2023-05-23T02:27:16;32.75;;;27.75;;
26780;SDS011;14366;49.184;8.054;2023-05-23T02:37:53;34.55;;;26.80;;
26780;SDS011;14366;49.184;8.054;2023-05-23T02:43:27;32.73;;;28.30;;
26780;SDS011;14366;49.184;8.054;2023-05-23T02:54:04;34.93;;;28.50;;
26780;SDS011;14366;49.184;8.054;2023-05-23T03:04:45;30.95;;;26.90;;
26780;SDS011;14366;49.184;8.054;2023-05-23T03:15:25;30.70;;;25.60;;
26780;SDS011;14366;49.184;8.054;2023-05-23T03:20:47;30.03;;;26.67;;
26780;SDS011;14366;49.184;8.054;2023-05-23T03:26:20;31.50;;;26.73;;
26780;SDS011;14366;49.184;8.054;2023-05-23T03:31:52;29.60;;;25.80;;
26780;SDS011;14366;49.184;8.054;2023-05-23T03:37:13;29.53;;;25.33;;
26780;SDS011;14366;49.184;8.054;2023-05-23T03:43:00;30.60;;;25.50;;
26780;SDS011;14366;49.184;8.054;2023-05-23T03:48:35;33.00;;;26.00;;
26780;SDS011;14366;49.184;8.054;2023-05-23T03:54:08;32.10;;;25.65;;
26780;SDS011;14366;49.184;8.054;2023-05-23T03:59:40;31.00;;;26.27;;
26780;SDS011;14366;49.184;8.054;2023-05-23T04:10:07;30.73;;;25.90;;
26780;SDS011;14366;49.184;8.054;2023-05-23T04:15:40;28.33;;;25.03;;
26780;SDS011;14366;49.184;8.054;2023-05-23T04:21:00;30.10;;;24.80;;
26780;SDS011;14366;49.184;8.054;2023-05-23T04:26:18;30.50;;;24.40;;
26780;SDS011;14366;49.184;8.054;2023-05-23T04:31:50;27.95;;;24.50;;
26780;SDS011;14366;49.184;8.054;2023-05-23T04:37:10;34.20;;;24.53;;
26780;SDS011;14366;49.184;8.054;2023-05-23T04:42:32;28.60;;;24.45;;
26780;SDS011;14366;49.184;8.054;2023-05-23T04:48:08;24.30;;;21.03;;
26780;SDS011;14366;49.184;8.054;2023-05-23T04:53:41;25.90;;;21.97;;
26780;SDS011;14366;49.184;8.054;2023-05-23T04:59:00;24.07;;;21.67;;
26780;SDS011;14366;49.184;8.054;2023-05-23T05:04:33;24.67;;;20.20;;
26780;SDS011;14366;49.184;8.054;2023-05-23T05:10:09;22.70;;;18.87;;
26780;SDS011;14366;49.184;8.054;2023-05-23T05:15:45;22.45;;;18.85;;
26780;SDS011;14366;49.184;8.054;2023-05-23T05:21:18;20.40;;;18.30;;
26780;SDS011;14366;49.184;8.054;2023-05-23T05:26:36;21.60;;;17.50;;
26780;SDS011;14366;49.184;8.054;2023-05-23T05:32:13;22.83;;;18.97;;
26780;SDS011;14366;49.184;8.054;2023-05-23T05:37:45;21.15;;;18.85;;
26780;SDS011;14366;49.184;8.054;2023-05-23T05:43:17;21.03;;;17.83;;
26780;SDS011;14366;49.184;8.054;2023-05-23T05:48:35;18.85;;;16.85;;
26780;SDS011;14366;49.184;8.054;2023-05-23T05:59:14;15.45;;;12.95;;
26780;SDS011;14366;49.184;8.054;2023-05-23T06:04:52;17.90;;;12.77;;
26780;SDS011;14366;49.184;8.054;2023-05-23T06:10:26;16.23;;;12.77;;
26780;SDS011;14366;49.184;8.054;2023-05-23T06:15:59;15.10;;;12.80;;
26780;SDS011;14366;49.184;8.054;2023-05-23T06:26:37;14.73;;;11.97;;
26780;SDS011;14366;49.184;8.054;2023-05-23T06:37:12;13.70;;;10.13;;
26780;SDS011;14366;49.184;8.054;2023-05-23T06:42:46;16.10;;;10.13;;
26780;SDS011;14366;49.184;8.054;2023-05-23T06:48:17;17.70;;;10.67;;
26780;SDS011;14366;49.184;8.054;2023-05-23T06:53:49;12.20;;;10.67;;
26780;SDS011;14366;49.184;8.054;2023-05-23T06:59:07;10.90;;;8.93;;
26780;SDS011;14366;49.184;8.054;2023-05-23T07:04:39;12.50;;;8.90;;
26780;SDS011;14366;49.184;8.054;2023-05-23T07:09:56;10.35;;;9.25;;
26780;SDS011;14366;49.184;8.054;2023-05-23T07:15:15;12.77;;;8.43;;
26780;SDS011;14366;49.184;8.054;2023-05-23T07:20:49;10.37;;;8.33;;
26780;SDS011;14366;49.184;8.054;2023-05-23T07:26:21;10.00;;;8.40;;
26780;SDS011;14366;49.184;8.054;2023-05-23T07:31:55;9.90;;;8.30;;
26780;SDS011;14366;49.184;8.054;2023-05-23T07:37:30;10.75;;;8.25;;
26780;SDS011;14366;49.184;8.054;2023-05-23T07:48:09;10.80;;;8.63;;
26780;SDS011;14366;49.184;8.054;2023-05-23T07:58:45;9.90;;;8.40;;
26780;SDS011;14366;49.184;8.054;2023-05-23T08:04:20;8.70;;;7.47;;
26780;SDS011;14366;49.184;8.054;2023-05-23T08:14:57;9.30;;;7.70;;
26780;SDS011;14366;49.184;8.054;2023-05-23T08:20:16;9.20;;;7.15;;
26780;SDS011;14366;49.184;8.054;2023-05-23T08:30:53;8.40;;;7.50;;
26780;SDS011;14366;49.184;8.054;2023-05-23T08:36:14;7.23;;;6.50;;
26780;SDS011;14366;49.184;8.054;2023-05-23T08:41:45;8.30;;;6.10;;
26780;SDS011;14366;49.184;8.054;2023-05-23T08:47:20;7.80;;;6.45;;
26780;SDS011;14366;49.184;8.054;2023-05-23T08:52:54;6.77;;;6.07;;
26780;SDS011;14366;49.184;8.054;2023-05-23T08:58:27;7.27;;;5.93;;
26780;SDS011;14366;49.184;8.054;2023-05-23T09:04:03;6.67;;;5.90;;
26780;SDS011;14366;49.184;8.054;2023-05-23T09:09:40;6.50;;;5.63;;
26780;SDS011;14366;49.184;8.054;2023-05-23T09:15:12;6.80;;;6.20;;
26780;SDS011;14366;49.184;8.054;2023-05-23T09:25:35;10.50;;;7.35;;
26780;SDS011;14366;49.184;8.054;2023-05-23T09:31:26;5.50;;;5.00;;
26780;SDS011;14366;49.184;8.054;2023-05-23T09:36:48;6.35;;;5.20;;
26780;SDS011;14366;49.184;8.054;2023-05-23T09:42:06;7.80;;;5.50;;
26780;SDS011;14366;49.184;8.054;2023-05-23T09:47:37;5.95;;;5.30;;
26780;SDS011;14366;49.184;8.054;2023-05-23T09:52:54;5.80;;;5.20;;
26780;SDS011;14366;49.184;8.054;2023-05-23T09:58:30;6.10;;;4.80;;
26780;SDS011;14366;49.184;8.054;2023-05-23T10:04:06;4.20;;;3.80;;
26780;SDS011;14366;49.184;8.054;2023-05-23T10:09:38;4.50;;;4.10;;
26780;SDS011;14366;49.184;8.054;2023-05-23T10:15:14;4.57;;;4.17;;
26780;SDS011;14366;49.184;8.054;2023-05-23T10:20:48;5.40;;;4.10;;
26780;SDS011;14366;49.184;8.054;2023-05-23T10:26:20;3.60;;;3.30;;
26780;SDS011;14366;49.184;8.054;2023-05-23T10:31:56;3.43;;;3.13;;
26780;SDS011;14366;49.184;8.054;2023-05-23T10:37:29;3.30;;;3.00;;
26780;SDS011;14366;49.184;8.054;2023-05-23T10:43:01;3.50;;;3.10;;
26780;SDS011;14366;49.184;8.054;2023-05-23T10:48:35;3.70;;;3.30;;
26780;SDS011;14366;49.184;8.054;2023-05-23T10:54:09;2.97;;;2.77;;
26780;SDS011;14366;49.184;8.054;2023-05-23T10:59:41;2.95;;;2.72;;
26780;SDS011;14366;49.184;8.054;2023-05-23T11:05:19;3.10;;;2.80;;
26780;SDS011;14366;49.184;8.054;2023-05-23T11:10:54;4.00;;;2.75;;
26780;SDS011;14366;49.184;8.054;2023-05-23T11:16:27;3.00;;;2.57;;
26780;SDS011;14366;49.184;8.054;2023-05-23T11:22:02;3.27;;;2.73;;
26780;SDS011;14366;49.184;8.054;2023-05-23T11:27:34;3.30;;;3.00;;
26780;SDS011;14366;49.184;8.054;2023-05-23T11:33:07;3.20;;;2.90;;
26780;SDS011;14366;49.184;8.054;2023-05-23T11:38:40;3.47;;;3.17;;
26780;SDS011;14366;49.184;8.054;2023-05-23T11:44:13;3.60;;;3.30;;
26780;SDS011;14366;49.184;8.054;2023-05-23T11:49:45;3.53;;;3.23;;
26780;SDS011;14366;49.184;8.054;2023-05-23T11:55:19;3.35;;;2.87;;
26780;SDS011;14366;49.184;8.054;2023-05-23T12:00:57;4.25;;;3.30;;
26780;SDS011;14366;49.184;8.054;2023-05-23T12:06:29;3.65;;;3.20;;
26780;SDS011;14366;49.184;8.054;2023-05-23T12:11:47;4.40;;;2.97;;
26780;SDS011;14366;49.184;8.054;2023-05-23T12:17:19;5.40;;;3.50;;
26780;SDS011;14366;49.184;8.054;2023-05-23T12:22:36;4.30;;;3.90;;
26780;SDS011;14366;49.184;8.054;2023-05-23T12:33:16;4.93;;;4.40;;
26780;SDS011;14366;49.184;8.054;2023-05-23T12:43:48;6.55;;;3.60;;
26780;SDS011;14366;49.184;8.054;2023-05-23T12:54:26;4.10;;;3.70;;
26780;SDS011;14366;49.184;8.054;2023-05-23T13:05:07;4.68;;;3.65;;
26780;SDS011;14366;49.184;8.054;2023-05-23T13:15:34;5.40;;;4.60;;
26780;SDS011;14366;49.184;8.054;2023-05-23T13:26:13;4.40;;;4.00;;
26780;SDS011;14366;49.184;8.054;2023-05-23T13:31:47;4.30;;;3.80;;
26780;SDS011;14366;49.184;8.054;2023-05-23T13:37:19;4.90;;;4.40;;
26780;SDS011;14366;49.184;8.054;2023-05-23T13:42:51;5.15;;;4.35;;
26780;SDS011;14366;49.184;8.054;2023-05-23T13:48:26;4.55;;;4.15;;
26780;SDS011;14366;49.184;8.054;2023-05-23T13:53:57;4.80;;;4.30;;
26780;SDS011;14366;49.184;8.054;2023-05-23T13:59:14;4.60;;;3.50;;
26780;SDS011;14366;49.184;8.054;2023-05-23T14:04:34;5.45;;;3.90;;
26780;SDS011;14366;49.184;8.054;2023-05-23T14:10:07;5.35;;;4.20;;
26780;SDS011;14366;49.184;8.054;2023-05-23T14:15:36;4.60;;;4.20;;
26780;SDS011;14366;49.184;8.054;2023-05-23T14:20:55;4.70;;;4.30;;
26780;SDS011;14366;49.184;8.054;2023-05-23T14:31:32;5.22;;;4.62;;
26780;SDS011;14366;49.184;8.054;2023-05-23T14:36:51;7.50;;;4.80;;
26780;SDS011;14366;49.184;8.054;2023-05-23T14:42:23;5.72;;;5.03;;
26780;SDS011;14366;49.184;8.054;2023-05-23T14:47:40;6.32;;;4.65;;
26780;SDS011;14366;49.184;8.054;2023-05-23T14:52:59;5.43;;;4.47;;
26780;SDS011;14366;49.184;8.054;2023-05-23T14:58:34;5.77;;;4.77;;
26780;SDS011;14366;49.184;8.054;2023-05-23T15:04:06;5.10;;;4.60;;
26780;SDS011;14366;49.184;8.054;2023-05-23T15:09:25;5.40;;;4.80;;
26780;SDS011;14366;49.184;8.054;2023-05-23T15:14:55;8.20;;;5.30;;
26780;SDS011;14366;49.184;8.054;2023-05-23T15:20:27;6.70;;;6.00;;
26780;SDS011;14366;49.184;8.054;2023-05-23T15:26:00;7.45;;;5.40;;
26780;SDS011;14366;49.184;8.054;2023-05-23T15:31:32;7.37;;;5.25;;
26780;SDS011;14366;49.184;8.054;2023-05-23T15:36:49;6.70;;;5.35;;
26780;SDS011;14366;49.184;8.054;2023-05-23T15:47:12;6.10;;;5.50;;
26780;SDS011;14366;49.184;8.054;2023-05-23T15:52:42;7.53;;;6.00;;
26780;SDS011;14366;49.184;8.054;2023-05-23T15:58:02;6.10;;;5.50;;
26780;SDS011;14366;49.184;8.054;2023-05-23T16:03:20;7.27;;;5.53;;
26780;SDS011;14366;49.184;8.054;2023-05-23T16:08:53;7.20;;;6.00;;
26780;SDS011;14366;49.184;8.054;2023-05-23T16:14:25;6.80;;;6.05;;
26780;SDS011;14366;49.184;8.054;2023-05-23T16:19:43;12.20;;;6.40;;
26780;SDS011;14366;49.184;8.054;2023-05-23T16:25:16;6.65;;;6.00;;
26780;SDS011;14366;49.184;8.054;2023-05-23T16:30:33;6.90;;;6.20;;
26780;SDS011;14366;49.184;8.054;2023-05-23T16:35:51;7.50;;;5.80;;
26780;SDS011;14366;49.184;8.054;2023-05-23T16:41:23;7.93;;;6.37;;
26780;SDS011;14366;49.184;8.054;2023-05-23T16:46:56;7.40;;;6.20;;
26780;SDS011;14366;49.184;8.054;2023-05-23T16:58:05;8.00;;;6.80;;
26780;SDS011;14366;49.184;8.054;2023-05-23T17:03:22;6.50;;;5.40;;
26780;SDS011;14366;49.184;8.054;2023-05-23T17:08:45;9.43;;;6.57;;
26780;SDS011;14366;49.184;8.054;2023-05-23T17:14:18;6.70;;;6.10;;
26780;SDS011;14366;49.184;8.054;2023-05-23T17:30:21;11.00;;;7.00;;
26780;SDS011;14366;49.184;8.054;2023-05-23T17:35:56;7.90;;;6.87;;
26780;SDS011;14366;49.184;8.054;2023-05-23T17:41:17;9.70;;;6.60;;
26780;SDS011;14366;49.184;8.054;2023-05-23T17:46:51;8.00;;;6.87;;
26780;SDS011;14366;49.184;8.054;2023-05-23T17:52:21;10.07;;;7.50;;
26780;SDS011;14366;49.184;8.054;2023-05-23T17:57:55;12.33;;;7.87;;
26780;SDS011;14366;49.184;8.054;2023-05-23T18:03:31;8.60;;;7.70;;
26780;SDS011;14366;49.184;8.054;2023-05-23T18:09:04;8.83;;;7.60;;
26780;SDS011;14366;49.184;8.054;2023-05-23T18:14:37;8.43;;;7.27;;
26780;SDS011;14366;49.184;8.054;2023-05-23T18:20:12;11.80;;;7.27;;
26780;SDS011;14366;49.184;8.054;2023-05-23T18:25:58;8.34;;;7.52;;
26780;SDS011;14366;49.184;8.054;2023-05-23T18:42:14;14.10;;;8.30;;
26780;SDS011;14366;49.184;8.054;2023-05-23T18:47:51;11.60;;;8.70;;
26780;SDS011;14366;49.184;8.054;2023-05-23T18:53:19;9.63;;;8.63;;
26780;SDS011;14366;49.184;8.054;2023-05-23T18:58:39;9.37;;;8.20;;
26780;SDS011;14366;49.184;8.054;2023-05-23T19:04:11;11.36;;;9.02;;
26780;SDS011;14366;49.184;8.054;2023-05-23T19:09:28;9.95;;;8.45;;
26780;SDS011;14366;49.184;8.054;2023-05-23T19:14:47;13.35;;;9.55;;
26780;SDS011;14366;49.184;8.054;2023-05-23T19:20:19;12.40;;;9.30;;
26780;SDS011;14366;49.184;8.054;2023-05-23T19:25:51;10.10;;;8.00;;
26780;SDS011;14366;49.184;8.054;2023-05-23T19:31:10;11.00;;;7.17;;
26780;SDS011;14366;49.184;8.054;2023-05-23T19:41:46;10.33;;;7.70;;
26780;SDS011;14366;49.184;8.054;2023-05-23T19:47:05;9.60;;;6.87;;
26780;SDS011;14366;49.184;8.054;2023-05-23T19:52:38;8.87;;;7.63;;
26780;SDS011;14366;49.184;8.054;2023-05-23T19:58:11;9.90;;;6.90;;
26780;SDS011;14366;49.184;8.054;2023-05-23T20:03:45;8.00;;;6.60;;
26780;SDS011;14366;49.184;8.054;2023-05-23T20:09:16;10.40;;;7.33;;
26780;SDS011;14366;49.184;8.054;2023-05-23T20:14:33;8.37;;;6.73;;
26780;SDS011;14366;49.184;8.054;2023-05-23T20:20:07;9.15;;;6.75;;
26780;SDS011;14366;49.184;8.054;2023-05-23T20:25:39;10.50;;;7.00;;
26780;SDS011;14366;49.184;8.054;2023-05-23T20:30:57;9.80;;;6.90;;
26780;SDS011;14366;49.184;8.054;2023-05-23T20:36:16;8.53;;;6.80;;
26780;SDS011;14366;49.184;8.054;2023-05-23T20:41:47;9.90;;;6.80;;
26780;SDS011;14366;49.184;8.054;2023-05-23T20:47:07;9.65;;;6.80;;
26780;SDS011;14366;49.184;8.054;2023-05-23T20:52:41;8.80;;;6.50;;
26780;SDS011;14366;49.184;8.054;2023-05-23T20:58:13;11.00;;;6.40;;
26780;SDS011;14366;49.184;8.054;2023-05-23T21:03:30;8.97;;;6.37;;
26780;SDS011;14366;49.184;8.054;2023-05-23T21:09:04;6.55;;;5.40;;
26780;SDS011;14366;49.184;8.054;2023-05-23T21:14:39;9.23;;;5.80;;
26780;SDS011;14366;49.184;8.054;2023-05-23T21:19:56;8.77;;;5.93;;
26780;SDS011;14366;49.184;8.054;2023-05-23T21:25:16;8.30;;;5.00;;
26780;SDS011;14366;49.184;8.054;2023-05-23T21:35:53;5.90;;;4.90;;
26780;SDS011;14366;49.184;8.054;2023-05-23T21:41:26;9.60;;;5.00;;
26780;SDS011;14366;49.184;8.054;2023-05-23T21:52:03;6.63;;;4.80;;
26780;SDS011;14366;49.184;8.054;2023-05-23T21:57:37;6.05;;;4.90;;
26780;SDS011;14366;49.184;8.054;2023-05-23T22:03:09;8.40;;;4.60;;
26780;SDS011;14366;49.184;8.054;2023-05-23T22:08:30;7.15;;;4.35;;
26780;SDS011;14366;49.184;8.054;2023-05-23T22:14:06;7.10;;;4.97;;
26780;SDS011;14366;49.184;8.054;2023-05-23T22:19:38;7.15;;;4.65;;
26780;SDS011;14366;49.184;8.054;2023-05-23T22:25:10;8.80;;;4.83;;
26780;SDS011;14366;49.184;8.054;2023-05-23T22:35:47;7.60;;;5.00;;
26780;SDS011;14366;49.184;8.054;2023-05-23T22:46:23;10.03;;;5.33;;
26780;SDS011;14366;49.184;8.054;2023-05-23T22:56:49;6.57;;;5.10;;
26780;SDS011;14366;49.184;8.054;2023-05-23T23:02:21;8.27;;;4.90;;
26780;SDS011;14366;49.184;8.054;2023-05-23T23:07:53;8.15;;;4.90;;
26780;SDS011;14366;49.184;8.054;2023-05-23T23:18:30;9.03;;;4.60;;
26780;SDS011;14366;49.184;8.054;2023-05-23T23:29:10;7.37;;;4.33;;
26780;SDS011;14366;49.184;8.054;2023-05-23T23:34:29;9.60;;;4.40;;
26780;SDS011;14366;49.184;8.054;2023-05-23T23:45:05;7.90;;;4.10;;
26780;SDS011;14366;49.184;8.054;2023-05-23T23:50:27;6.90;;;4.20;;
26780;SDS011;14366;49.184;8.054;2023-05-23T23:55:59;6.33;;;4.03;;
